Time;durP1;ratioP1;P1;durP2;ratioP2;P2;SDS_P1;SDS_P2;PMS_P1;PMS_P2;Temp;Humidity;BMP_temperature;BMP_pressure;BME280_temperature;BME280_humidity;BME280_pressure;Samples;Min_cycle;Max_cycle;Signal;HPM_P1;HPM_P2
2022/10/03 00:00:13;;;;;;;1.83;1.73;;;;;;;13.77;80.04;94883.47;5114851;28;20432;-78
2022/10/03 00:03:09;;;;;;;1.50;1.40;;;;;;;13.73;80.19;94884.75;5114725;28;20860;-78
2022/10/03 00:05:50;;;;;;;2.33;1.80;;;;;;;13.68;80.99;94878.28;5031812;28;20446;-78
2022/10/03 00:08:28;;;;;;;1.67;1.57;;;;;;;13.64;81.48;94870.66;5016354;28;20490;-78
2022/10/03 00:11:05;;;;;;;3.53;2.03;;;;;;;13.67;81.68;94882.72;5031620;28;20476;-78
2022/10/03 00:13:43;;;;;;;3.97;3.60;;;;;;;13.63;82.12;94871.63;5015893;28;21006;-78
2022/10/03 00:16:17;;;;;;;2.07;1.87;;;;;;;13.60;81.88;94866.66;5031645;28;20443;-78
2022/10/03 00:18:54;;;;;;;3.83;1.93;;;;;;;13.60;82.38;94864.03;5031371;28;20485;-78
2022/10/03 00:21:30;;;;;;;2.10;1.97;;;;;;;13.61;82.31;94859.59;5030561;28;20819;-79
2022/10/03 00:24:08;;;;;;;1.97;1.70;;;;;;;13.53;81.74;94848.94;5031355;28;20431;-78
2022/10/03 00:26:43;;;;;;;2.27;1.60;;;;;;;13.48;82.28;94840.66;5031561;28;20446;-78
2022/10/03 00:29:31;;;;;;;3.10;2.03;;;;;;;13.47;82.16;94839.81;5031466;28;20442;-78
2022/10/03 00:32:07;;;;;;;2.10;2.00;;;;;;;13.46;82.40;94835.53;5031234;28;20446;-77
2022/10/03 00:34:47;;;;;;;2.00;1.77;;;;;;;13.47;82.96;94834.53;5031163;28;20449;-78
2022/10/03 00:37:27;;;;;;;2.57;2.33;;;;;;;13.42;82.14;94842.06;5031090;28;20508;-78
2022/10/03 00:40:22;;;;;;;1.70;1.60;;;;;;;13.42;82.41;94841.25;5031220;28;20438;-78
2022/10/03 00:43:23;;;;;;;2.77;1.70;;;;;;;13.44;82.66;94836.66;5077973;28;20446;-78
2022/10/03 00:46:28;;;;;;;2.43;2.23;;;;;;;13.42;82.85;94836.81;5030889;28;20450;-78
2022/10/03 00:49:36;;;;;;;1.90;1.80;;;;;;;13.40;82.47;94846.66;4972369;28;20496;-79
2022/10/03 00:52:19;;;;;;;2.10;1.90;;;;;;;13.36;83.24;94842.69;4914548;29;20495;-78
2022/10/03 00:54:55;;;;;;;2.43;2.13;;;;;;;13.18;83.26;94836.53;4914726;29;20531;-78
2022/10/03 00:57:42;;;;;;;2.47;1.93;;;;;;;13.14;83.48;94850.94;4914752;29;20451;-78
2022/10/03 01:00:18;;;;;;;2.27;2.07;;;;;;;13.09;83.38;94846.13;4914877;29;20460;-78
2022/10/03 01:02:54;;;;;;;2.13;1.97;;;;;;;13.07;84.57;94857.78;4899001;29;20452;-77
2022/10/03 01:05:33;;;;;;;2.13;1.93;;;;;;;13.06;84.39;94840.31;4914464;29;20447;-78
2022/10/03 01:08:35;;;;;;;2.17;1.97;;;;;;;13.02;84.74;94839.78;4914530;29;20534;-78
2022/10/03 01:11:11;;;;;;;2.50;2.30;;;;;;;13.04;84.53;94837.81;4914358;29;21013;-77
2022/10/03 01:13:51;;;;;;;2.40;2.20;;;;;;;12.92;84.51;94829.28;4914448;29;20457;-79
2022/10/03 01:16:26;;;;;;;6.60;2.60;;;;;;;12.84;85.41;94839.72;4914308;29;20452;-78
2022/10/03 01:19:05;;;;;;;2.47;2.27;;;;;;;12.81;85.52;94834.75;4914355;29;20970;-78
2022/10/03 01:21:45;;;;;;;2.30;2.17;;;;;;;12.76;85.28;94828.25;4914495;29;20531;-77
2022/10/03 01:24:50;;;;;;;2.47;2.27;;;;;;;12.61;86.07;94835.78;4968729;28;20544;-78
2022/10/03 01:27:26;;;;;;;5.43;2.60;;;;;;;12.63;86.39;94832.03;5030509;28;20893;-78
2022/10/03 01:32:51;;;;;;;2.50;2.30;;;;;;;12.67;87.22;94825.50;5112801;28;20492;-78
2022/10/03 01:35:29;;;;;;;2.57;2.10;;;;;;;12.66;88.05;94825.63;5113069;28;20447;-78
2022/10/03 01:38:05;;;;;;;2.77;2.00;;;;;;;12.67;88.20;94819.41;5112869;28;20487;-78
2022/10/03 01:40:39;;;;;;;2.30;2.10;;;;;;;12.64;88.10;94812.63;5112824;28;20533;-78
2022/10/03 01:43:19;;;;;;;2.40;2.20;;;;;;;12.67;88.59;94814.13;5112726;28;20852;-78
2022/10/03 01:46:06;;;;;;;3.67;1.73;;;;;;;12.69;88.36;94820.06;5113057;28;20439;-79
2022/10/03 01:48:43;;;;;;;2.10;2.00;;;;;;;12.73;87.69;94813.56;5112769;28;20479;-78
2022/10/03 01:51:15;;;;;;;2.00;1.90;;;;;;;12.78;87.29;94815.78;5112928;28;20569;-78
2022/10/03 01:54:01;;;;;;;2.50;2.17;;;;;;;12.78;88.01;94813.13;5113138;28;20437;-78
2022/10/03 01:56:34;;;;;;;1.83;1.73;;;;;;;12.80;87.22;94814.66;5112797;28;20469;-78
2022/10/03 01:59:06;;;;;;;3.10;1.87;;;;;;;12.79;87.72;94807.72;5112982;28;20544;-79
2022/10/03 02:01:46;;;;;;;2.10;1.83;;;;;;;12.78;87.68;94813.97;5076788;28;20445;-78
2022/10/03 02:04:20;;;;;;;2.57;2.20;;;;;;;12.80;87.75;94805.91;5112973;28;20461;-78
2022/10/03 02:06:58;;;;;;;3.13;2.10;;;;;;;12.82;88.04;94801.34;5113052;28;20453;-78
2022/10/03 02:09:34;;;;;;;1.97;1.87;;;;;;;12.82;88.31;94803.97;5112667;28;20842;-78
2022/10/03 02:12:08;;;;;;;3.13;1.97;;;;;;;12.79;87.51;94801.63;5112674;28;20453;-78
2022/10/03 02:14:46;;;;;;;2.57;1.90;;;;;;;12.74;87.89;94795.97;5076819;28;20439;-78
2022/10/03 02:17:24;;;;;;;2.60;2.40;;;;;;;12.73;87.65;94802.22;5112631;28;20477;-78
2022/10/03 02:20:00;;;;;;;2.57;2.10;;;;;;;12.77;88.97;94795.69;5113043;28;20457;-78
2022/10/03 02:22:34;;;;;;;6.60;2.47;;;;;;;12.73;88.85;94792.50;5112509;28;20451;-78
2022/10/03 02:25:23;;;;;;;4.00;2.10;;;;;;;12.75;87.92;94805.53;5112700;28;20936;-78
2022/10/03 02:28:23;;;;;;;7.63;2.00;;;;;;;12.75;88.32;94795.00;5112709;28;20547;-78
2022/10/03 02:31:21;;;;;;;2.17;1.90;;;;;;;12.72;88.30;94801.34;5112412;28;20844;-78
2022/10/03 02:34:17;;;;;;;2.43;2.23;;;;;;;12.71;88.15;94799.69;5112545;28;21006;-78
2022/10/03 02:37:07;;;;;;;2.30;2.10;;;;;;;12.73;87.15;94795.16;5112484;28;20941;-78
2022/10/03 02:40:00;;;;;;;4.33;2.00;;;;;;;12.74;87.71;94806.50;5029738;28;20486;-78
2022/10/03 02:43:05;;;;;;;2.40;2.20;;;;;;;12.72;88.24;94804.00;5029692;28;20451;-78
2022/10/03 02:46:23;;;;;;;5.83;2.20;;;;;;;12.71;88.47;94799.69;5019369;28;20454;-78
2022/10/03 02:49:30;;;;;;;2.27;2.07;;;;;;;12.71;88.64;94797.06;4974538;28;21097;-78
2022/10/03 02:52:47;;;;;;;3.77;2.47;;;;;;;12.74;88.23;94793.34;4974210;28;21073;-78
2022/10/03 02:55:44;;;;;;;3.53;1.90;;;;;;;12.76;87.73;94802.75;4916415;29;20455;-78
2022/10/03 02:58:49;;;;;;;1.90;1.80;;;;;;;12.75;87.48;94800.25;4916716;29;20447;-79
2022/10/03 03:01:53;;;;;;;1.93;1.77;;;;;;;12.74;87.92;94804.69;4860724;29;20520;-78
2022/10/03 03:04:58;;;;;;;3.03;2.73;;;;;;;12.77;88.27;94808.84;4860372;29;20455;-77
2022/10/03 03:07:39;;;;;;;2.30;2.10;;;;;;;12.58;87.88;94805.31;4860529;29;20474;-78
2022/10/03 03:10:34;;;;;;;2.70;2.50;;;;;;;12.57;87.79;94808.09;4860483;29;20481;-78
2022/10/03 03:13:22;;;;;;;2.80;2.07;;;;;;;12.52;87.82;94797.16;4860367;29;20841;-78
2022/10/03 03:16:18;;;;;;;2.60;2.40;;;;;;;12.47;88.57;94796.78;4866823;29;20500;-78
2022/10/03 03:18:54;;;;;;;4.57;2.87;;;;;;;12.47;88.90;94789.72;4916305;29;20495;-78
2022/10/03 03:21:32;;;;;;;3.87;2.30;;;;;;;12.52;88.31;94794.53;4916550;29;20503;-78
2022/10/03 03:24:16;;;;;;;6.17;4.10;;;;;;;12.52;88.27;94799.78;4967734;28;20464;-78
2022/10/03 03:27:19;;;;;;;3.00;2.27;;;;;;;12.52;89.25;94791.91;5023389;28;20465;-78
2022/10/03 03:29:55;;;;;;;4.43;2.47;;;;;;;12.53;89.13;94790.94;4954374;29;21039;-78
2022/10/03 03:32:32;;;;;;;14.33;4.27;;;;;;;12.55;89.54;94791.59;4954369;29;20442;-78
2022/10/03 03:35:12;;;;;;;2.33;2.20;;;;;;;12.63;89.06;94787.28;4954147;29;20464;-79
2022/10/03 03:37:46;;;;;;;2.63;2.20;;;;;;;12.65;90.55;94793.22;4994868;28;20443;-78
2022/10/03 03:40:35;;;;;;;2.87;2.60;;;;;;;12.67;89.70;94782.53;5032295;28;20446;-78
2022/10/03 03:43:27;;;;;;;2.53;2.03;;;;;;;12.70;89.18;94777.81;4999242;28;20829;-78
2022/10/03 03:46:05;;;;;;;5.30;2.30;;;;;;;12.71;89.27;94773.38;5047747;28;20452;-78
2022/10/03 03:48:53;;;;;;;2.90;2.17;;;;;;;12.76;88.61;94775.59;5047119;28;20524;-78
2022/10/03 03:51:33;;;;;;;3.63;2.43;;;;;;;12.76;88.97;94779.06;5031543;28;20876;-78
2022/10/03 03:54:22;;;;;;;2.63;2.50;;;;;;;12.75;89.75;94768.66;5031692;28;20445;-78
2022/10/03 03:57:22;;;;;;;2.70;2.50;;;;;;;12.73;89.56;94776.72;5031631;28;20453;-78
2022/10/03 04:00:06;;;;;;;2.57;2.10;;;;;;;12.76;93.35;94760.63;5011613;28;20541;-78
2022/10/03 04:02:58;;;;;;;3.93;2.27;;;;;;;12.94;96.15;94769.38;5012905;28;20456;-81
2022/10/03 04:05:40;;;;;;;2.37;2.13;;;;;;;13.32;97.85;94751.72;5032511;28;20470;-78
2022/10/03 04:08:22;;;;;;;3.00;2.60;;;;;;;13.47;92.47;94760.75;5032253;28;20496;-79
2022/10/03 04:11:06;;;;;;;3.73;2.90;;;;;;;13.56;89.52;94761.63;5031897;28;20508;-78
2022/10/03 04:14:00;;;;;;;2.60;2.40;;;;;;;13.48;87.20;94761.56;5001320;28;20446;-79
2022/10/03 04:19:44;;;;;;;3.23;2.63;;;;;;;13.42;87.26;94759.53;5032072;28;20568;-78
2022/10/03 04:22:28;;;;;;;2.67;2.47;;;;;;;13.38;87.33;94764.28;5032228;28;20501;-79
2022/10/03 04:25:25;;;;;;;10.00;3.43;;;;;;;13.35;87.71;94761.94;5032216;28;20460;-77
2022/10/03 04:28:09;;;;;;;2.40;2.30;;;;;;;13.30;87.76;94767.69;4906004;29;20453;-78
2022/10/03 04:30:46;;;;;;;3.10;2.80;;;;;;;13.28;87.80;94751.16;4953923;29;20507;-78
2022/10/03 04:33:31;;;;;;;5.60;2.60;;;;;;;13.28;88.21;94756.44;4906048;29;20445;-78
2022/10/03 04:36:26;;;;;;;5.80;3.50;;;;;;;13.19;88.61;94761.78;4953882;29;20454;-78
2022/10/03 04:39:04;;;;;;;4.67;3.10;;;;;;;13.17;89.45;94776.88;4861662;29;20457;-78
2022/10/03 04:41:40;;;;;;;3.30;3.00;;;;;;;13.11;89.71;94766.94;4882231;29;20448;-78
2022/10/03 04:44:18;;;;;;;6.30;3.27;;;;;;;13.06;90.12;94777.09;4914640;29;20962;-78
2022/10/03 04:46:54;;;;;;;4.70;3.40;;;;;;;12.77;91.39;94745.66;4914931;29;20900;-78
2022/10/03 04:49:30;;;;;;;15.83;3.33;;;;;;;12.51;92.61;94761.28;4914493;29;20534;-78
2022/10/03 04:52:02;;;;;;;5.93;3.60;;;;;;;12.59;92.60;94748.22;4914137;29;20915;-78
2022/10/03 04:54:47;;;;;;;12.33;4.17;;;;;;;12.07;95.35;94742.59;4918752;29;20462;-81
2022/10/03 04:57:24;;;;;;;9.33;3.70;;;;;;;12.30;94.50;94764.13;4929182;29;20450;-78
2022/10/03 05:00:00;;;;;;;4.53;3.67;;;;;;;12.22;94.28;94767.47;4915130;29;20523;-79
2022/10/03 05:02:42;;;;;;;5.60;3.47;;;;;;;12.28;94.75;94766.91;4914838;29;20471;-78
2022/10/03 05:05:23;;;;;;;5.67;4.10;;;;;;;11.71;95.93;94752.06;4962588;28;20525;-78
2022/10/03 05:07:59;;;;;;;5.83;3.50;;;;;;;11.89;96.04;94749.56;4991180;28;20804;-78
2022/10/03 05:10:45;;;;;;;4.43;4.03;;;;;;;12.05;96.29;94760.31;5007641;28;20494;-78
2022/10/03 05:13:18;;;;;;;4.30;3.60;;;;;;;12.16;94.97;94768.06;5011058;28;20457;-78
2022/10/03 05:15:56;;;;;;;6.67;3.67;;;;;;;11.81;95.91;94767.84;5044880;28;20451;-78
2022/10/03 05:18:34;;;;;;;8.17;5.40;;;;;;;11.93;95.75;94759.66;5093213;28;20986;-78
2022/10/03 05:21:09;;;;;;;6.70;3.30;;;;;;;11.94;96.22;94763.13;5093234;28;20450;-78
2022/10/03 05:23:49;;;;;;;10.93;7.10;;;;;;;12.04;96.22;94758.66;5040080;28;20446;-78
2022/10/03 05:26:24;;;;;;;7.20;4.17;;;;;;;12.14;96.63;94758.63;5092850;28;20454;-78
2022/10/03 05:29:00;;;;;;;8.47;4.20;;;;;;;12.30;97.02;94759.69;5092882;28;20930;-79
2022/10/03 05:31:43;;;;;;;5.20;4.40;;;;;;;12.38;95.42;94757.16;5057424;28;20508;-78
2022/10/03 05:34:19;;;;;;;6.23;4.20;;;;;;;12.45;95.35;94762.72;5092705;28;20447;-78
2022/10/03 05:37:03;;;;;;;4.40;4.00;;;;;;;12.41;94.27;94761.31;5093221;28;20760;-78
2022/10/03 05:39:38;;;;;;;7.17;5.27;;;;;;;12.51;94.41;94751.59;5093208;28;20508;-78
2022/10/03 05:42:26;;;;;;;12.37;4.90;;;;;;;12.40;94.73;94749.94;5040591;28;20443;-79
2022/10/03 05:45:02;;;;;;;6.60;4.10;;;;;;;12.36;95.14;94738.06;5093261;28;20846;-79
2022/10/03 05:50:40;;;;;;;8.93;6.47;;;;;;;12.36;96.83;94727.53;5092156;28;20618;-78
2022/10/03 05:53:33;;;;;;;5.37;4.77;;;;;;;12.58;96.96;94725.50;5092760;28;20530;-78
2022/10/03 05:56:08;;;;;;;12.63;4.10;;;;;;;12.92;98.30;94723.94;5092556;28;20455;-78
2022/10/03 05:58:56;;;;;;;4.70;4.40;;;;;;;13.25;95.01;94729.56;5092647;28;20538;-78
2022/10/03 06:01:52;;;;;;;7.47;4.00;;;;;;;13.84;93.57;94731.53;5092750;28;20447;-77
2022/10/03 06:04:52;;;;;;;4.93;4.03;;;;;;;14.57;91.20;94728.56;5092717;28;20455;-78
2022/10/03 06:07:25;;;;;;;5.23;4.70;;;;;;;14.88;86.25;94747.34;5092951;28;20475;-78
2022/10/03 06:10:18;;;;;;;5.50;3.83;;;;;;;14.98;84.54;94749.84;5092709;28;20483;-77
2022/10/03 06:12:53;;;;;;;6.20;4.17;;;;;;;14.83;83.57;94760.19;5092739;28;20447;-77
2022/10/03 06:15:58;;;;;;;5.17;4.03;;;;;;;14.67;83.78;94757.47;5092587;28;20444;-78
2022/10/03 06:19:05;;;;;;;7.30;4.37;;;;;;;14.67;85.14;94774.16;4990726;28;20452;-78
2022/10/03 06:22:12;;;;;;;10.87;6.83;;;;;;;14.66;85.09;94780.41;4923900;29;20890;-78
2022/10/03 06:25:28;;;;;;;8.10;4.93;;;;;;;14.64;85.52;94773.63;4936407;29;20793;-79
2022/10/03 06:28:30;;;;;;;12.13;5.90;;;;;;;14.70;86.03;94779.09;4936835;29;20502;-78
2022/10/03 06:31:16;;;;;;;8.33;5.40;;;;;;;14.65;85.30;94776.13;4936342;29;20450;-78
2022/10/03 06:34:32;;;;;;;13.67;6.37;;;;;;;14.68;86.90;94781.09;4936610;29;20867;-78
2022/10/03 06:37:38;;;;;;;8.07;5.50;;;;;;;14.79;86.08;94780.81;4861461;29;20469;-78
2022/10/03 06:40:47;;;;;;;14.90;6.20;;;;;;;14.83;85.87;94784.81;4788071;30;20467;-78
2022/10/03 06:43:55;;;;;;;6.97;5.27;;;;;;;14.52;86.25;94781.00;4788507;30;20609;-78
2022/10/03 06:46:46;;;;;;;5.40;4.90;;;;;;;14.38;87.36;94777.09;4788387;30;20461;-78
2022/10/03 06:49:42;;;;;;;8.50;4.40;;;;;;;14.43;87.82;94776.66;4752371;30;20492;-78
2022/10/03 06:56:08;;;;;;;7.90;5.17;;;;;;;14.12;87.81;94792.09;4783935;29;20544;-78
2022/10/03 06:59:07;;;;;;;5.17;4.60;;;;;;;13.80;89.45;94792.66;4833781;29;20894;-78
2022/10/03 07:02:15;;;;;;;8.23;4.97;;;;;;;13.87;90.71;94783.16;4874807;29;20545;-78
2022/10/03 07:05:05;;;;;;;7.20;4.60;;;;;;;13.85;90.24;94793.03;4915811;29;20451;-78
2022/10/03 07:08:20;;;;;;;18.40;6.63;;;;;;;14.01;89.87;94792.34;4916264;29;20489;-79
2022/10/03 07:11:21;;;;;;;8.67;5.80;;;;;;;14.12;89.77;94798.19;4916052;29;20514;-78
2022/10/03 07:14:13;;;;;;;6.30;5.70;;;;;;;14.16;88.45;94812.72;4884747;29;20448;-78
2022/10/03 07:17:04;;;;;;;12.50;6.17;;;;;;;14.16;88.96;94822.47;4930603;29;20460;-78
2022/10/03 07:19:59;;;;;;;12.03;7.90;;;;;;;14.18;89.57;94828.44;4954244;29;20450;-77
2022/10/03 07:23:12;;;;;;;23.07;9.60;;;;;;;14.09;89.85;94839.91;4878453;29;20548;-78
2022/10/03 07:26:29;;;;;;;13.40;9.83;;;;;;;14.05;91.45;94843.81;4889358;29;20458;-78
2022/10/03 07:29:41;;;;;;;21.80;10.90;;;;;;;13.89;93.06;94866.47;4934643;29;20455;-78
2022/10/03 07:32:29;;;;;;;13.77;10.13;;;;;;;13.77;93.79;94864.19;4983331;28;20466;-78
2022/10/03 07:35:21;;;;;;;20.27;10.77;;;;;;;13.69;94.97;94879.94;5032172;28;20469;-78
2022/10/03 07:41:21;;;;;;;32.10;15.17;;;;;;;13.70;97.33;94884.22;4954882;29;20438;-78
2022/10/03 07:44:38;;;;;;;17.90;10.90;;;;;;;13.63;97.58;94887.47;4954618;29;20514;-78
2022/10/03 07:47:47;;;;;;;18.17;11.37;;;;;;;13.67;98.07;94877.44;4953476;29;20489;-78
2022/10/03 07:50:50;;;;;;;25.20;12.00;;;;;;;13.73;99.72;94889.19;4953311;29;20490;-78
2022/10/03 07:53:28;;;;;;;20.13;11.53;;;;;;;13.52;100.00;94885.00;4953440;29;20540;-78
2022/10/03 07:56:10;;;;;;;22.03;11.97;;;;;;;13.58;100.00;94886.22;4953537;29;20583;-78
2022/10/03 07:59:02;;;;;;;24.03;12.50;;;;;;;13.70;100.00;94895.59;4970142;28;20458;-78
2022/10/03 08:01:48;;;;;;;24.43;13.40;;;;;;;13.69;100.00;94887.84;5030818;28;20960;-78
2022/10/03 08:04:46;;;;;;;15.37;11.77;;;;;;;13.58;100.00;94884.41;5032264;28;20435;-78
2022/10/03 08:07:32;;;;;;;19.13;13.10;;;;;;;13.55;100.00;94878.59;5032059;28;20443;-78
2022/10/03 08:10:22;;;;;;;21.63;15.57;;;;;;;13.68;100.00;94899.38;5031538;28;20529;-78
2022/10/03 08:13:28;;;;;;;20.30;13.93;;;;;;;13.70;100.00;94887.69;5031601;28;20446;-78
2022/10/03 08:16:13;;;;;;;22.80;16.53;;;;;;;13.79;100.00;94892.06;4972777;28;20500;-78
2022/10/03 08:19:15;;;;;;;20.60;13.60;;;;;;;13.89;100.00;94890.19;5005970;28;20448;-78
2022/10/03 08:21:57;;;;;;;17.40;11.10;;;;;;;13.78;100.00;94887.75;5011503;28;20497;-79
2022/10/03 08:24:37;;;;;;;20.37;11.53;;;;;;;13.90;100.00;94889.22;5011271;28;20450;-78
2022/10/03 08:27:34;;;;;;;14.13;10.77;;;;;;;14.03;100.00;94899.38;5011221;28;20442;-80
2022/10/03 08:30:20;;;;;;;12.80;10.13;;;;;;;14.02;100.00;94884.53;5011491;28;20566;-77
2022/10/03 08:33:34;;;;;;;20.63;12.17;;;;;;;14.13;100.00;94899.28;5011247;28;20452;-78
2022/10/03 08:36:33;;;;;;;16.30;10.17;;;;;;;14.20;100.00;94895.09;4858465;29;20446;-78
2022/10/03 08:39:12;;;;;;;20.47;11.40;;;;;;;14.23;100.00;94895.63;4859578;29;20943;-78
2022/10/03 08:42:16;;;;;;;16.03;10.23;;;;;;;14.31;100.00;94894.84;4858968;29;20490;-78
2022/10/03 08:45:18;;;;;;;12.90;10.13;;;;;;;14.43;100.00;94891.00;4859400;29;20462;-78
2022/10/03 08:48:19;;;;;;;12.70;8.80;;;;;;;14.53;100.00;94896.22;4804585;29;20521;-78
2022/10/03 08:51:21;;;;;;;21.10;10.40;;;;;;;14.62;100.00;94895.28;4821578;29;20504;-78
2022/10/03 08:54:16;;;;;;;17.63;11.53;;;;;;;14.70;100.00;94899.78;4821833;29;21029;-78
2022/10/03 08:56:57;;;;;;;18.20;10.60;;;;;;;14.81;100.00;94897.72;4821852;29;20456;-78
2022/10/03 08:59:58;;;;;;;15.73;9.73;;;;;;;14.95;100.00;94901.59;4821527;29;20460;-78
2022/10/03 09:02:56;;;;;;;14.33;9.17;;;;;;;15.06;100.00;94887.31;4821582;29;20969;-78
2022/10/03 09:06:18;;;;;;;13.40;8.27;;;;;;;15.18;100.00;94896.59;4821465;29;20452;-78
2022/10/03 09:09:17;;;;;;;6.97;5.43;;;;;;;15.39;100.00;94885.63;4821775;29;20452;-79
2022/10/03 09:12:30;;;;;;;14.87;7.40;;;;;;;15.67;99.45;94886.25;4788569;29;20580;-78
2022/10/03 09:15:28;;;;;;;7.07;5.50;;;;;;;15.84;95.91;94892.41;4895273;29;20455;-78
2022/10/03 09:18:11;;;;;;;8.20;5.50;;;;;;;15.90;95.47;94889.94;4895237;29;20457;-78
2022/10/03 09:21:16;;;;;;;7.50;5.40;;;;;;;15.95;94.29;94890.28;4895302;29;20464;-79
2022/10/03 09:24:03;;;;;;;7.27;4.77;;;;;;;15.95;95.36;94885.00;4897479;29;20939;-78
2022/10/03 09:27:13;;;;;;;4.03;3.67;;;;;;;16.07;94.39;94875.75;4932880;29;20550;-78
2022/10/03 09:30:07;;;;;;;4.37;3.53;;;;;;;16.43;92.41;94883.34;4934748;28;20902;-78
2022/10/03 09:33:21;;;;;;;7.83;6.07;;;;;;;16.42;89.24;94887.00;5010263;28;20455;-78
2022/10/03 09:36:15;;;;;;;10.23;4.90;;;;;;;16.19;88.79;94872.75;4913803;29;20450;-78
2022/10/03 09:39:08;;;;;;;5.67;4.50;;;;;;;16.09;90.10;94892.28;4914007;29;20515;-78
2022/10/03 09:42:08;;;;;;;9.53;4.30;;;;;;;15.92;91.09;94887.16;4913669;29;20455;-78
2022/10/03 09:44:47;;;;;;;5.43;4.20;;;;;;;15.85;91.08;94880.81;4867057;29;20452;-79
2022/10/03 09:47:52;;;;;;;9.53;4.30;;;;;;;15.81;91.17;94882.97;4913732;29;20841;-77
2022/10/03 09:50:50;;;;;;;5.13;4.63;;;;;;;15.85;94.00;94876.34;4990302;28;20497;-78
2022/10/03 09:54:02;;;;;;;4.90;4.37;;;;;;;15.89;92.36;94875.03;4990273;28;20534;-78
2022/10/03 09:56:58;;;;;;;4.73;3.73;;;;;;;15.76;91.34;94875.53;4941780;28;20437;-78
2022/10/03 09:59:43;;;;;;;4.83;3.80;;;;;;;15.78;92.15;94875.34;4990511;28;20458;-78
2022/10/03 10:02:46;;;;;;;6.93;3.60;;;;;;;15.82;91.93;94879.34;4990481;28;20440;-78
2022/10/03 10:05:43;;;;;;;4.77;4.10;;;;;;;15.85;91.52;94883.47;4990230;28;20446;-77
2022/10/03 10:08:44;;;;;;;4.00;3.70;;;;;;;15.91;87.99;94883.66;4990389;28;20827;-77
2022/10/03 10:11:25;;;;;;;5.10;3.20;;;;;;;15.89;84.89;94879.50;4990218;28;20483;-77
2022/10/03 10:14:34;;;;;;;4.10;3.83;;;;;;;15.88;85.16;94877.84;5084912;28;20494;-78
2022/10/03 10:17:36;;;;;;;4.97;3.00;;;;;;;15.97;85.05;94887.47;5029590;28;20446;-78
2022/10/03 10:20:26;;;;;;;4.77;4.33;;;;;;;16.08;84.38;94882.69;5029374;28;20510;-78
2022/10/03 10:23:23;;;;;;;6.00;3.93;;;;;;;16.19;82.30;94886.84;5029716;28;20476;-78
2022/10/03 10:26:33;;;;;;;4.00;3.60;;;;;;;16.23;81.20;94880.22;5029510;28;20812;-78
2022/10/03 10:29:41;;;;;;;6.03;3.40;;;;;;;16.27;80.24;94878.06;5029590;28;20528;-77
2022/10/03 10:32:59;;;;;;;3.23;2.93;;;;;;;16.22;79.99;94881.22;4922618;28;20457;-77
2022/10/03 10:36:05;;;;;;;4.47;3.60;;;;;;;16.28;78.43;94890.31;4970595;28;20437;-78
2022/10/03 10:38:54;;;;;;;5.60;3.77;;;;;;;16.31;78.15;94882.03;4970782;28;20987;-77
2022/10/03 10:41:52;;;;;;;4.07;3.67;;;;;;;16.42;77.82;94887.00;4970733;28;20451;-78
2022/10/03 10:45:09;;;;;;;4.00;3.60;;;;;;;16.47;76.11;94900.56;4954373;28;20436;-78
2022/10/03 10:48:22;;;;;;;3.40;3.10;;;;;;;16.44;76.38;94887.66;4970645;28;20456;-77
2022/10/03 10:51:24;;;;;;;3.60;3.30;;;;;;;16.53;77.36;94889.34;4970387;28;20567;-78
2022/10/03 10:54:24;;;;;;;4.87;3.00;;;;;;;16.57;76.80;94888.00;4993258;28;20505;-78
2022/10/03 10:57:08;;;;;;;5.47;3.27;;;;;;;16.61;78.16;94896.44;4951225;29;20458;-78
2022/10/03 11:00:08;;;;;;;4.10;2.37;;;;;;;16.56;73.55;94899.59;4951214;29;20938;-78
2022/10/03 11:03:28;;;;;;;2.97;2.77;;;;;;;16.47;74.20;94895.28;4838501;29;20538;-78
2022/10/03 11:06:25;;;;;;;2.73;2.53;;;;;;;16.45;74.16;94891.97;4803609;29;20514;-77
2022/10/03 11:09:30;;;;;;;2.87;2.67;;;;;;;16.45;75.43;94891.13;4858962;29;20920;-77
2022/10/03 11:12:36;;;;;;;4.10;2.97;;;;;;;16.56;75.25;94888.16;4860182;29;21028;-78
2022/10/03 11:15:34;;;;;;;2.80;2.53;;;;;;;16.61;73.66;94880.56;4859904;29;20818;-77
2022/10/03 11:18:34;;;;;;;4.60;2.83;;;;;;;16.67;74.22;94875.44;4860386;29;20542;-78
2022/10/03 11:21:40;;;;;;;2.37;2.27;;;;;;;16.51;74.06;94880.72;4805323;29;20464;-77
2022/10/03 11:24:25;;;;;;;3.27;2.97;;;;;;;16.39;75.00;94888.16;4804978;29;20469;-77
2022/10/03 11:27:37;;;;;;;5.13;2.73;;;;;;;16.32;76.22;94881.88;4805010;29;20824;-77
2022/10/03 11:30:23;;;;;;;2.87;2.67;;;;;;;16.21;75.67;94890.16;4787163;29;20466;-78
2022/10/03 11:33:45;;;;;;;3.07;2.50;;;;;;;16.12;76.54;94885.84;4787237;30;20469;-78
2022/10/03 11:36:47;;;;;;;3.00;2.80;;;;;;;16.09;75.20;94894.94;4751213;30;20990;-78
2022/10/03 11:39:25;;;;;;;5.07;3.40;;;;;;;16.19;75.88;94892.16;4779353;29;20470;-78
2022/10/03 11:42:01;;;;;;;3.17;2.97;;;;;;;16.18;75.46;94889.63;4861652;29;21028;-77
2022/10/03 11:44:30;;;;;;;5.73;5.33;;;;;;;16.24;74.80;94891.66;4915830;29;20450;-78
2022/10/03 11:47:23;;;;;;;6.47;4.27;;;;;;;16.17;72.59;94903.88;4915539;29;20491;-78
2022/10/03 11:50:23;;;;;;;4.43;4.00;;;;;;;16.10;72.46;94904.53;4915714;29;20448;-77
2022/10/03 11:53:13;;;;;;;3.77;3.47;;;;;;;16.04;70.19;94877.88;4915530;29;20496;-77
2022/10/03 11:55:47;;;;;;;4.17;3.77;;;;;;;16.04;71.54;94885.81;4877951;29;20454;-79
2022/10/03 11:58:36;;;;;;;3.80;3.50;;;;;;;16.03;73.46;94886.81;4888665;29;20453;-78
2022/10/03 12:01:21;;;;;;;4.60;4.30;;;;;;;15.97;73.29;94888.31;4896539;29;20870;-77
2022/10/03 12:03:57;;;;;;;6.27;3.80;;;;;;;16.03;74.75;94877.06;4865377;29;20964;-77
2022/10/03 12:09:44;;;;;;;4.67;4.10;;;;;;;16.24;73.44;94878.41;5031811;28;20433;-77
2022/10/03 12:12:27;;;;;;;4.63;4.23;;;;;;;16.29;72.69;94876.09;5031592;28;20506;-77
2022/10/03 12:14:58;;;;;;;4.60;4.20;;;;;;;16.46;72.96;94887.50;5031647;28;20449;-79
2022/10/03 12:17:32;;;;;;;5.10;4.70;;;;;;;16.45;72.42;94881.38;5031398;28;20503;-77
2022/10/03 12:20:04;;;;;;;4.37;4.07;;;;;;;16.49;73.70;94881.91;4981918;28;20938;-77
2022/10/03 12:22:47;;;;;;;4.67;3.90;;;;;;;16.56;72.47;94877.56;5031189;28;20945;-77
2022/10/03 12:25:23;;;;;;;6.33;5.03;;;;;;;16.64;73.54;94883.69;5031427;28;20536;-77
2022/10/03 12:28:16;;;;;;;7.03;4.87;;;;;;;16.85;73.95;94887.69;5031246;28;20531;-77
2022/10/03 12:30:48;;;;;;;5.03;4.57;;;;;;;16.87;71.33;94885.69;5031231;28;20488;-77
2022/10/03 12:33:28;;;;;;;5.57;5.07;;;;;;;16.92;70.89;94883.34;5069220;28;20451;-77
2022/10/03 12:36:03;;;;;;;4.80;4.40;;;;;;;16.93;71.35;94880.53;5093690;28;20883;-77
2022/10/03 12:38:45;;;;;;;7.37;4.63;;;;;;;16.97;71.92;94881.00;5057799;28;20431;-77
2022/10/03 12:41:24;;;;;;;5.70;4.20;;;;;;;16.97;71.22;94875.72;5093309;28;20450;-80
2022/10/03 12:44:10;;;;;;;4.63;4.23;;;;;;;17.06;71.37;94873.84;5093410;28;20451;-78
2022/10/03 12:46:45;;;;;;;5.87;4.30;;;;;;;17.16;68.40;94878.00;5093658;28;20436;-77
2022/10/03 12:49:19;;;;;;;4.47;4.10;;;;;;;17.20;67.44;94873.16;5093711;28;20786;-78
2022/10/03 12:51:55;;;;;;;5.07;4.50;;;;;;;17.30;67.15;94869.31;5093058;28;20492;-78
2022/10/03 12:54:46;;;;;;;4.20;3.90;;;;;;;17.37;62.73;94876.59;5093257;28;20458;-79
2022/10/03 12:57:39;;;;;;;3.87;3.60;;;;;;;17.41;62.66;94892.00;5093191;28;20442;-79
2022/10/03 13:00:19;;;;;;;4.57;4.17;;;;;;;17.37;62.94;94893.34;5093209;28;20455;-79
2022/10/03 13:03:01;;;;;;;5.33;4.40;;;;;;;17.43;62.65;94884.69;5093062;28;20531;-79
2022/10/03 13:05:42;;;;;;;6.67;4.10;;;;;;;17.41;62.04;94880.56;5093350;28;20472;-79
2022/10/03 13:08:27;;;;;;;4.80;4.43;;;;;;;17.44;61.23;94890.81;5092837;28;20451;-79
2022/10/03 13:11:00;;;;;;;6.33;5.83;;;;;;;17.33;60.07;94884.03;5092752;28;20996;-79
2022/10/03 13:13:33;;;;;;;5.30;4.80;;;;;;;17.29;61.00;94880.91;5093050;28;20447;-78
2022/10/03 13:16:26;;;;;;;6.07;4.77;;;;;;;17.41;60.23;94877.91;5093334;28;20820;-78
2022/10/03 13:18:58;;;;;;;10.87;6.00;;;;;;;17.53;61.78;94887.13;5030620;28;20438;-78
2022/10/03 13:21:48;;;;;;;5.40;5.00;;;;;;;17.66;61.28;94892.72;5030524;28;20529;-80
2022/10/03 13:24:25;;;;;;;5.90;5.30;;;;;;;17.65;60.70;94881.28;4997338;28;20435;-79
2022/10/03 13:27:03;;;;;;;5.83;5.23;;;;;;;17.57;59.46;94893.75;5030266;28;20446;-79
2022/10/03 13:29:37;;;;;;;4.33;4.03;;;;;;;17.46;60.40;94880.88;5014011;28;20456;-79